Aeroporto :
LOGIN :

Iscrizione | Disclaimer

   EN    FR    IT 

 










Sommario :    VFR   VFR Marginale   IFR   IFR Intensivo   IFR Molto Intensivo
Visibilità : 
Base nubi : 
>= 8 km
>= 3000ft
5 / 8 km
1000 / 3000 ft
1500m / 5 km
500 / 1000 ft
800 / 1500m
200 / 500 ft
< 800m
< 200 ft
Simboli :   Temporali  Nebbia  Neve Forte  Precipitazioni Forti  Vento > 20 kt
SIGMETs :   Varie  Temporali  Ghiacco  Turbolenza  Onda orograficha  Ceneri Vulcaniche






- Altitudine del aeroporto : 265 ft


ETSH - Holzdorf AB

ULTIMO METAR :
  • 220420Z 16004KT 3500 BR SCT002 SCT050 BKN100 07/07 Q1010 YLO YLO

METARs OBSOLETI :
  • 220400Z 16003KT 3500 BR BKN002 07/07 Q1010 AMB
  • 220320Z 21003KT 4000 BR BKN003 07/07 Q1009 YLO
  • 220300Z 21004KT 3500 BR BKN002 07/07 Q1009 AMB
  • 220238Z 21004KT 4000 BR BKN003 BKN020 07/07 Q1009 YLO
  • 220220Z 21003KT 4000 BR BKN002 BKN013 08/07 Q1009 AMB
  • 220211Z 22004KT 4000 BR BKN002 08/07 Q1009 AMB

Previsioni scadute.



MetMap, La meteo Aeronautica in un colpo d'occhio ! - Copyright ORBIFLY Dicembre 2007 - Disclaimer

ORBIFLY MET'MAP TEAM :

Programmazione e sviluppo : Alexandra Zaïnal
Concezione e sviluppo : Baudouin d'Aumeries
Co-Programmazione e sviluppo : Marc-Olivier Méhu
Supporto tecnico e logistico : Manuel Goepfert
Aiuto per la traduzione : Arnaldo La Scala

Contatto : metmap@orbifly.com




FONTI E CREDITI :

   NOAA